Capt. James Anderson — WDC3584 — position and weather

sailwx.info

Track history (hours):
 
Tides and Currents Weather Stations Pressure Air Temp Water Temp Dewpoint Dewpoint Depression Visibility Wind Speed Wind Dir Waves Ship Positions

Capt. James Anderson

Owner: Indiana Michigan Power Company, Gahanna, OH. More information available from US FCC via Universal Licensing System and Coast Guard Vessel Documentation Center.

Last reported at 2015-Dec-12 09:25 UTC. Time now 2016-Dec-08 14:21 UTC.
Position N 38°44' W 083°51'.
Warning: this ship's position is months out of date.

Length 46 m; draft 3.5 m.

Type: Towing. MMSI: 367010580.

Date/timePositionNaut miles runAvg speedWind from/ knotsBaromVisibWave heightAir tempDewpointWater temp
2015-Dec-12 09:25N 38°44' W 083°51'3 3.8
2015-Dec-12 08:32N 38°46' W 083°55'8 4.0
2015-Dec-12 06:33N 38°46' W 084°05'4 4.4
2015-Dec-12 05:32N 38°48' W 084°10'0 0.4
2015-Dec-12 04:32N 38°48' W 084°11'2 2.0
2015-Dec-12 03:33N 38°48' W 084°13'2 2.1
2015-Dec-12 02:25N 38°51' W 084°14'0 0.0
2015-Dec-12 01:33N 38°51' W 084°14'0 0.0
2015-Dec-12 00:31N 38°51' W 084°14'0 0.2
2015-Dec-11 23:32N 38°51' W 084°14'0 0.1
2015-Dec-11 22:32N 38°51' W 084°14'3 2.6
2015-Dec-11 21:32N 38°53' W 084°14'4 4.0
2015-Dec-11 20:33N 38°57' W 084°17'4 4.1
2015-Dec-11 19:33N 39°01' W 084°19'4 4.1
2015-Dec-11 18:33N 39°03' W 084°23'4 3.7
2015-Dec-11 17:32N 39°05' W 084°26'3 2.9
2015-Dec-11 16:32N 39°06' W 084°30'4 3.7
2015-Dec-11 15:33N 39°05' W 084°34'4 4.1
2015-Dec-11 14:33N 39°06' W 084°39'0 0.0
2015-Dec-11 13:29N 39°06' W 084°39'2 2.5
2015-Dec-11 12:33N 39°07' W 084°42'3 3.5
2015-Dec-11 11:33N 39°08' W 084°46'6 2.9
2015-Dec-11 09:33N 39°04' W 084°52'3 2.6
2015-Dec-11 08:32N 39°02' W 084°52'4 3.8
2015-Dec-11 07:24N 38°58' W 084°50'4 3.0
2015-Dec-11 06:11N 38°54' W 084°51'  
Track history (hours):
 
Tides and Currents Weather Stations Pressure Air Temp Water Temp Dewpoint Dewpoint Depression Visibility Wind Speed Wind Dir Waves Ship Positions

Capt. James Anderson

Owner: Indiana Michigan Power Company, Gahanna, OH. More information available from US FCC via Universal Licensing System and Coast Guard Vessel Documentation Center.

Last reported at 2015-Dec-12 09:25 UTC. Time now 2016-Dec-08 14:21 UTC.
Position N 38°44' W 083°51'.
Warning: this ship's position is months out of date.

Length 46 m; draft 3.5 m.

Type: Towing. MMSI: 367010580.

Date/timePositionNaut miles runAvg speedWind from/ knotsBaromVisibWave heightAir tempDewpointWater temp
2015-Dec-12 09:25N 38°44' W 083°51'3 3.8
2015-Dec-12 08:32N 38°46' W 083°55'8 4.0
2015-Dec-12 06:33N 38°46' W 084°05'4 4.4
2015-Dec-12 05:32N 38°48' W 084°10'0 0.4
2015-Dec-12 04:32N 38°48' W 084°11'2 2.0
2015-Dec-12 03:33N 38°48' W 084°13'2 2.1
2015-Dec-12 02:25N 38°51' W 084°14'0 0.0
2015-Dec-12 01:33N 38°51' W 084°14'0 0.0
2015-Dec-12 00:31N 38°51' W 084°14'0 0.2
2015-Dec-11 23:32N 38°51' W 084°14'0 0.1
2015-Dec-11 22:32N 38°51' W 084°14'3 2.6
2015-Dec-11 21:32N 38°53' W 084°14'4 4.0
2015-Dec-11 20:33N 38°57' W 084°17'4 4.1
2015-Dec-11 19:33N 39°01' W 084°19'4 4.1
2015-Dec-11 18:33N 39°03' W 084°23'4 3.7
2015-Dec-11 17:32N 39°05' W 084°26'3 2.9
2015-Dec-11 16:32N 39°06' W 084°30'4 3.7
2015-Dec-11 15:33N 39°05' W 084°34'4 4.1
2015-Dec-11 14:33N 39°06' W 084°39'0 0.0
2015-Dec-11 13:29N 39°06' W 084°39'2 2.5
2015-Dec-11 12:33N 39°07' W 084°42'3 3.5
2015-Dec-11 11:33N 39°08' W 084°46'6 2.9
2015-Dec-11 09:33N 39°04' W 084°52'3 2.6
2015-Dec-11 08:32N 39°02' W 084°52'4 3.8
2015-Dec-11 07:24N 38°58' W 084°50'4 3.0
2015-Dec-11 06:11N 38°54' W 084°51'  

Dump ship's entire track history